Thunder radar more information blitzortung!


Radar de pluja more information rain snow radar


Visita la nostra xarxa de llocs de meteo:

Template documentation
and downloads

And another site



No particular awareness of the weather is required.    There are no Weather-warnings

Nearby METAR Reports

   
LEBL - Barcelona Airpor, Spain
Distancia fins a l'estacio: SSE 30 km
Actualitzacio: 19-12-2018 15:00
Clar  
Clar  
   Vent: WNW 27.8 km/h
Vent: WNW 27.8 km/h
Temperatura: 17°C
Punt de rosada: 3°C
Humitat: 39%
Barometre: 1017 hPa
Visibilitat: More than 10 km
Cloud details: Clar ft
LEBL 191400Z 29015KT 260V320 CAVOK 17/03 Q1017 NOSIG
LELL - Sabadell, Spain
Distancia fins a l'estacio: WNW 14 km
Actualitzacio: 19-12-2018 15:00
Nuvols dispersos  
Nuvols dispersos  
   Vent: SW 16.7 km/h
Vent: SW 16.7 km/h
Temperatura: 15°C
Punt de rosada: 6°C
Humitat: 55%
Barometre: 1017 hPa
Nuvols: Few Clouds
Visibilitat: More than 10 km
Cloud details: Nuvols dispersos 5000 ft
LELL 191400Z 23009KT 200V260 9999 FEW050 15/06 Q1017
LEGE - Girona/Costa Bra, Spain
Distancia fins a l'estacio: NE 65 km
Actualitzacio: 19-12-2018 15:00
Clar  
Clar  
   Vent: varia 9.3 km/h
Vent: varia 9.3 km/h
Temperatura: 16°C
Punt de rosada: 5°C
Humitat: 48%
Barometre: 1015 hPa
Visibilitat: More than 10 km
Cloud details: Clar ft
LEGE 191400Z VRB05KT CAVOK 16/05 Q1015
LERS - Reus (civ/Mil), Spain
Distancia fins a l'estacio: WSW 96 km
Actualitzacio: 19-12-2018 15:00
Nuvols dispersos  
Nuvols dispersos  
   Vent: West 22.2 km/h
Vent: West 22.2 km/h
Temperatura: 16°C
Punt de rosada: 4°C
Humitat: 45%
Barometre: 1018 hPa
Nuvols: Few Clouds
Visibilitat: More than 10 km
Cloud details: Nuvols dispersos 4000 ft
LERS 191400Z 28012KT 230V320 9999 FEW040 16/04 Q1018
LESU - Pirineus/La Seu, Spain
Distancia fins a l'estacio: NW 121 km
Actualitzacio: 17-12-2018 17:00
NO actual
Clar  
Clar  
   Vent: SW 5.6 km/h
Vent: SW 5.6 km/h
Temperatura: 7°C
Termica: 6°C
Punt de rosada: 3°C
Humitat: 76%
Barometre: 1027 hPa
Visibilitat: More than 10 km
Cloud details: Clar ft
LESU 171600Z 23003KT 200V280 CAVOK 07/03 Q1027
LEDA - Lleida/Alguaire, Spain
Distancia fins a l'estacio: WNW 146 km
Actualitzacio: 19-12-2018 15:00
Nuvols dispersos  
Nuvols dispersos  
   Vent: WSW 31.5 km/h
Vent: WSW 31.5 km/h
Temperatura: 13°C
Punt de rosada: 5°C
Humitat: 59%
Barometre: 1019 hPa
Nuvols: Few Clouds
Visibilitat: More than 10 km
Cloud details: Nuvols dispersos 4000 ft
LEDA 191400Z 25017KT 9999 FEW040 13/05 Q1019
LFMP - Perpignan/Rivesa, France
Distancia fins a l'estacio: NNE 150 km
Actualitzacio: 19-12-2018 15:00
Parcialment tapat  
Parcialment tapat  
   Vent: varia 3.7 km/h
Vent: varia 3.7 km/h
Temperatura: 16°C
Punt de rosada: 9°C
Humitat: 63%
Barometre: 1016 hPa
Nuvols: Partly Cloudy
Visibilitat: More than 10 km
Cloud details: Parcialment tapat 4200 ft,
Parcialment tapat 4900 ft
LFMP 191400Z AUTO VRB02KT 9999 SCT042 SCT049 16/09 Q1016 BECMG 32012KT
LEPA - Palma De Mallorca, Spain
Distancia fins a l'estacio: S 216 km
Actualitzacio: 19-12-2018 15:00
Parcialment tapat  
Parcialment tapat  
   Vent: West 27.8 km/h
Vent: West 27.8 km/h
Temperatura: 17°C
Punt de rosada: 13°C
Humitat: 77%
Barometre: 1019 hPa
Nuvols: Partly Cloudy
Visibilitat: More than 10 km
Cloud details: Nuvols dispersos 1800 ft,
Parcialment tapat 2800 ft
LEPA 191400Z 26015KT 9999 FEW018 SCT028 17/13 Q1019 NOSIG
 

Guio original per  Saratoga-weather.org Adaptat per a la plantilla per  Weerstation Leuven

Trobareu la nostra informacio del temps tambe a:

Weather Underground

AWEKAS